• Join FlightAware (Why Join?)
  • Login
  • US Flag 
11:26AM EDT


 

Airport Tracker/Info


-or-


 

Live Flight TrackerFlight Track Log ✈ SWA224 ✈ 04-May-2013 ✈ KPHX - KMDW

Flight Track Log - Related Links

Times and Time Zones

All times are in EDT time to prevent confusion due to time zone crossing. See the SWA224 flight status page for this flight to view local times or setup timezone preferences in your user account.

Time Position Orientation Groundspeed Altitude Reporting Facility
EDT Latitude Longitude Course Direction KTS MPH feet Rate Location/Type
02:03PM 33.4333 -112.0000 90° East 181 208 1,700  Level Phoenix TRACON
02:03PM 33.4333 -111.9500 90° East 175 201 3,100 1,620 Climbing Phoenix TRACON
02:04PM 33.4333 -111.8833 90° East 247 284 4,500 1,680 Climbing Phoenix TRACON
02:05PM 33.4481 -111.8494 62° Northeast 248 285 5,400 2,520 Climbing Albuquerque Center
02:06PM 33.4906 -111.7739 56° Northeast 276 318 8,200 2,820 Climbing Albuquerque Center
02:07PM 33.5339 -111.6875 59° Northeast 306 352 11,300 2,820 Climbing Albuquerque Center
02:08PM 33.5722 -111.5831 66° East 344 396 14,000 2,880 Climbing Albuquerque Center
02:09PM 33.6222 -111.4467 66° East 377 434 17,300 2,940 Climbing Albuquerque Center
02:10PM 33.6672 -111.3275 66° East 395 455 20,100 2,520 Climbing Albuquerque Center
02:11PM 33.7131 -111.1994 67° East 416 479 22,500 2,220 Climbing Albuquerque Center
02:12PM 33.7603 -111.0669 67° East 434 499 24,700 1,980 Climbing Albuquerque Center
02:13PM 33.8089 -110.9278 67° East 447 514 26,700 1,800 Climbing Albuquerque Center
02:14PM 33.8589 -110.7856 67° East 459 528 28,400 1,620 Climbing Albuquerque Center
02:15PM 33.9103 -110.6400 67° East 469 540 30,100 1,860 Climbing Albuquerque Center
02:16PM 33.9742 -110.4611 67° East 482 555 32,300 1,800 Climbing Albuquerque Center
02:17PM 34.0197 -110.3294 67° East 484 557 33,900 1,560 Climbing Albuquerque Center
02:18PM 34.0803 -110.1519 68° East 482 555 35,600 1,440 Climbing Albuquerque Center
02:19PM 34.1289 -110.0125 67° East 479 551 36,900 660 Climbing Albuquerque Center
02:20PM 34.1861 -109.8469 67° East 478 550 37,000  Climbing Albuquerque Center
02:21PM 34.2336 -109.7064 68° East 475 547 37,000  Level Albuquerque Center
02:22PM 34.2894 -109.5431 67° East 473 544 37,000  Level Albuquerque Center
02:23PM 34.3383 -109.4028 67° East 472 543 37,000  Level Albuquerque Center
02:24PM 34.3847 -109.2614 68° East 473 544 37,000  Level Albuquerque Center
02:25PM 34.4392 -109.0975 68° East 472 543 37,000  Level Albuquerque Center
02:26PM 34.4786 -108.9531 72° East 472 543 37,000  Level Albuquerque Center
02:27PM 34.5256 -108.7831 71° East 474 545 37,000  Level Albuquerque Center
02:28PM 34.5647 -108.6383 72° East 473 544 37,000  Level Albuquerque Center
02:29PM 34.6111 -108.4661 72° East 477 549 37,000  Level Albuquerque Center
02:30PM 34.6472 -108.3342 72° East 475 547 37,000  Level Albuquerque Center
02:31PM 34.6878 -108.1814 72° East 475 547 37,000  Level Albuquerque Center
02:32PM 34.7289 -108.0297 72° East 474 545 37,000  Level Albuquerque Center
02:33PM 34.7783 -107.8475 72° East 473 544 37,000  Level Albuquerque Center
02:34PM 34.8183 -107.6950 72° East 473 544 37,000  Level Albuquerque Center
02:36PM 34.8567 -107.5428 73° East 472 543 37,000  Level Albuquerque Center
02:37PM 34.8969 -107.3897 72° East 473 544 37,000  Level Albuquerque Center
02:38PM 34.9364 -107.2369 72° East 474 545 37,000  Level Albuquerque Center
02:39PM 34.9783 -107.0800 72° East 479 551 37,000  Level Albuquerque Center
02:40PM 35.0208 -106.9075 73° East 475 547 37,000  Level Albuquerque Center
02:41PM 35.0617 -106.7656 71° East 467 537 37,000  Level Albuquerque Center
02:42PM 35.1236 -106.6003 65° Northeast 475 547 37,000  Level Albuquerque Center
02:43PM 35.1758 -106.4636 65° Northeast 484 557 37,000  Level Albuquerque Center
02:44PM 35.2300 -106.3153 66° East 481 554 37,000  Level Albuquerque Center
02:45PM 35.2897 -106.1500 66° East 470 541 37,000  Level Albuquerque Center
02:46PM 35.3439 -106.0017 66° East 472 543 37,000  Level Albuquerque Center
02:47PM 35.4003 -105.8531 65° Northeast 474 545 37,000  Level Albuquerque Center
02:48PM 35.4550 -105.7050 66° East 475 547 37,000  Level Albuquerque Center
02:49PM 35.5069 -105.5575 67° East 469 540 37,000  Level Albuquerque Center
02:50PM 35.5586 -105.4114 66° East 462 532 37,000  Level Albuquerque Center
02:51PM 35.6100 -105.2631 67° East 464 534 37,000  Level Albuquerque Center
02:52PM 35.6808 -105.0933 63° Northeast 472 543 37,000  Level Albuquerque Center
02:53PM 35.7525 -104.9592 57° Northeast 466 536 37,000  Level Albuquerque Center
02:54PM 35.8253 -104.8261 56° Northeast 465 535 37,000  Level Albuquerque Center
02:55PM 35.8989 -104.6897 56° Northeast 467 537 37,000  Level Albuquerque Center
02:56PM 35.9722 -104.5536 56° Northeast 470 541 37,000  Level Albuquerque Center
02:57PM 36.0444 -104.4211 56° Northeast 462 532 37,000  Level Albuquerque Center
02:58PM 36.1169 -104.2828 57° Northeast 469 540 37,000  Level Albuquerque Center
02:59PM 36.1914 -104.1467 56° Northeast 472 543 37,000  Level Albuquerque Center
03:00PM 36.2642 -104.0111 56° Northeast 468 539 37,000  Level Albuquerque Center
03:01PM 36.3358 -103.8756 57° Northeast 466 536 37,000  Level Albuquerque Center
03:02PM 36.4086 -103.7372 57° Northeast 471 542 37,000  Level Albuquerque Center
03:03PM 36.4922 -103.5769 57° Northeast 470 541 37,000  Level Albuquerque Center
03:04PM 36.5633 -103.4400 57° Northeast 468 539 37,000  Level Albuquerque Center
03:05PM 36.6356 -103.3008 57° Northeast 472 543 37,100 720 Climbing Albuquerque Center
03:06PM 36.7119 -103.1553 57° Northeast 475 547 38,600 900 Climbing Albuquerque Center
03:07PM 36.7803 -103.0214 57° Northeast 478 550 39,000 180 Climbing Albuquerque Center
03:08PM 36.8472 -102.8894 58° Northeast 474 545 39,000  Level Albuquerque Center
03:09PM 36.9278 -102.7328 57° Northeast 479 551 39,000  Level Albuquerque Center
03:10PM 36.9958 -102.5992 57° Northeast 478 550 39,000  Level Albuquerque Center
03:11PM 37.0686 -102.4583 57° Northeast 472 543 39,000  Level Albuquerque Center
03:14PM 37.2125 -102.1706 58° Northeast 470 541 39,000  Level Albuquerque Center
03:15PM 37.2908 -102.0131 58° Northeast 475 547 39,000  Level Albuquerque Center
03:16PM 37.3578 -101.8789 58° Northeast 475 547 39,000  Level Albuquerque Center
03:16PM 37.3783 -101.8331 61° Northeast 474 545 39,000  Level Kansas City Center
03:17PM 37.4453 -101.6978 58° Northeast 474 545 39,000  Level Kansas City Center
03:18PM 37.5111 -101.5625 58° Northeast 474 545 39,000  Level Kansas City Center
03:19PM 37.5892 -101.4044 58° Northeast 474 545 39,000  Level Kansas City Center
03:20PM 37.6547 -101.2700 58° Northeast 470 541 39,000  Level Kansas City Center
03:21PM 37.7308 -101.1147 58° Northeast 465 535 39,000  Level Kansas City Center
03:22PM 37.7961 -100.9797 59° Northeast 463 533 39,000  Level Kansas City Center
03:23PM 37.8611 -100.8456 58° Northeast 460 529 39,000  Level Kansas City Center
03:24PM 37.9239 -100.7108 59° Northeast 460 529 39,000  Level Kansas City Center
03:25PM 37.9803 -100.5425 67° East 463 533 39,000  Level Kansas City Center
03:26PM 38.0286 -100.3994 67° East 462 532 39,000  Level Kansas City Center
03:27PM 38.0858 -100.2286 67° East 466 536 39,000  Level Kansas City Center
03:28PM 38.1333 -100.0850 67° East 463 533 39,000  Level Kansas City Center
03:29PM 38.1800 -99.9425 67° East 458 527 39,000  Level Kansas City Center
03:30PM 38.2353 -99.7786 67° East 453 521 39,000  Level Kansas City Center
03:31PM 38.2811 -99.6367 68° East 453 521 39,000  Level Kansas City Center
03:32PM 38.3261 -99.5022 67° East 449 517 39,000  Level Kansas City Center
03:33PM 38.3833 -99.3269 67° East 447 514 39,000  Level Kansas City Center
03:34PM 38.4314 -99.1794 67° East 450 518 39,000  Level Kansas City Center
03:35PM 38.4797 -99.0314 67° East 451 519 39,000  Level Kansas City Center
03:36PM 38.5278 -98.8836 67° East 450 518 39,000  Level Kansas City Center
03:37PM 38.5758 -98.7336 68° East 454 522 39,000  Level Kansas City Center
03:38PM 38.6233 -98.5858 68° East 449 517 39,000  Level Kansas City Center
03:39PM 38.6700 -98.4381 68° East 447 514 39,000  Level Kansas City Center
03:40PM 38.7169 -98.2908 68° East 444 511 39,000  Level Kansas City Center
03:41PM 38.7633 -98.1433 68° East 444 511 39,000  Level Kansas City Center
03:42PM 38.8092 -97.9961 68° East 444 511 39,000  Level Kansas City Center
03:43PM 38.8589 -97.8364 68° East 445 512 39,000  Level Kansas City Center
03:44PM 38.9086 -97.6744 68° East 439 505 39,000  Level Kansas City Center
03:46PM 38.9486 -97.5347 70° East 436 502 39,000  Level Kansas City Center
03:47PM 38.9922 -97.3706 71° East 435 501 39,000  Level Kansas City Center
03:48PM 39.0292 -97.2303 71° East 433 498 39,000  Level Kansas City Center
03:49PM 39.0653 -97.0933 71° East 426 490 39,000  Level Kansas City Center
03:50PM 39.1050 -96.9339 72° East 420 483 39,000  Level Kansas City Center
03:51PM 39.1417 -96.7983 71° East 420 483 39,000  Level Kansas City Center
03:52PM 39.1817 -96.6397 72° East 417 480 39,000  Level Kansas City Center
03:53PM 39.2164 -96.5042 72° East 416 479 39,000  Level Kansas City Center
03:54PM 39.2506 -96.3669 72° East 418 481 39,000  Level Kansas City Center
03:55PM 39.2906 -96.2092 72° East 415 478 39,000  Level Kansas City Center
03:56PM 39.3247 -96.0753 72° East 412 474 39,000  Level Kansas City Center
03:57PM 39.3633 -95.9183 72° East 409 471 39,000  Level Kansas City Center
03:58PM 39.3969 -95.7817 72° East 415 478 39,000  Level Kansas City Center
03:59PM 39.4303 -95.6456 72° East 413 475 39,000  Level Kansas City Center
04:00PM 39.4694 -95.4872 72° East 412 474 39,000  Level Kansas City Center
04:01PM 39.5056 -95.3378 73° East 415 478 39,000  Level Kansas City Center
04:02PM 39.5394 -95.1975 73° East 411 473 39,000  Level Kansas City Center
04:03PM 39.5733 -95.0564 73° East 408 470 39,000  Level Kansas City Center
04:04PM 39.6061 -94.9206 73° East 409 471 39,000  Level Kansas City Center
04:05PM 39.6453 -94.7619 72° East 411 473 39,000  Level Kansas City Center
04:06PM 39.6764 -94.6233 74° East 416 479 39,000  Level Kansas City Center
04:07PM 39.7094 -94.4858 73° East 417 480 39,000  Level Kansas City Center
04:08PM 39.7467 -94.3244 73° East 417 480 39,000  Level Kansas City Center
04:09PM 39.7781 -94.1872 73° East 415 478 39,000  Level Kansas City Center
04:10PM 39.8114 -94.0456 73° East 410 472 39,000  Level Kansas City Center
04:11PM 39.8414 -93.9036 75° East 407 468 39,000  Level Kansas City Center
04:12PM 39.8728 -93.7647 74° East 404 465 39,000  Level Kansas City Center
04:13PM 39.9128 -93.6017 72° East 400 460 39,000  Level Kansas City Center
04:14PM 39.9425 -93.4622 74° East 401 461 39,000  Level Kansas City Center
04:15PM 39.9731 -93.3247 74° East 402 463 39,000  Level Kansas City Center
04:16PM 40.0047 -93.1897 73° East 396 456 39,000  Level Kansas City Center
04:17PM 40.0342 -93.0547 74° East 392 451 39,000  Level Kansas City Center
04:18PM 40.0664 -92.9031 74° East 392 451 39,000  Level Kansas City Center
04:19PM 40.0950 -92.7703 74° East 395 455 39,000  Level Kansas City Center
04:20PM 40.1278 -92.6156 74° East 396 456 39,000  Level Kansas City Center
04:21PM 40.1581 -92.4825 73° East 399 459 39,000  Level Kansas City Center
04:22PM 40.1872 -92.3367 75° East 394 453 39,000  Level Kansas City Center
04:23PM 40.2192 -92.1839 75° East 398 458 39,000  Level Kansas City Center
04:25PM 40.2469 -92.0458 75° East 396 456 39,000  Level Kansas City Center
04:26PM 40.2747 -91.9078 75° East 396 456 39,000 -600 Level Kansas City Center
04:27PM 40.3031 -91.7697 75° East 396 456 37,800 -1,440 Descending Kansas City Center
04:28PM 40.3314 -91.6300 75° East 398 458 36,100 -1,860 Descending Kansas City Center
04:29PM 40.3575 -91.4903 76° East 398 458 34,000 -2,160 Descending Kansas City Center
04:30PM 40.3894 -91.3267 76° East 391 450 31,700 -2,100 Descending Kansas City Center
04:30PM 40.4014 -91.2775 72° East 393 452 31,100 -540 Descending Chicago Center
04:31PM 40.4294 -91.1361 75° East 400 460 31,000 -60 Descending Chicago Center
04:32PM 40.4558 -90.9950 76° East 399 459 31,000  Level Chicago Center
04:33PM 40.4836 -90.8533 76° East 399 459 31,000 -300 Level Chicago Center
04:34PM 40.5103 -90.7117 76° East 400 460 30,500 -780 Descending Chicago Center
04:35PM 40.5364 -90.5703 76° East 399 459 29,500 -1,680 Descending Chicago Center
04:36PM 40.5911 -90.4389 61° Northeast 408 470 27,100 -2,040 Descending Chicago Center
04:37PM 40.6647 -90.2831 58° Northeast 415 478 25,300 -1,620 Descending Chicago Center
04:38PM 40.7192 -90.1664 58° Northeast 407 468 23,900 -1,200 Descending Chicago Center
04:39PM 40.7767 -90.0422 59° Northeast 399 459 22,900 -1,020 Descending Chicago Center
04:40PM 40.8342 -89.9183 58° Northeast 397 457 21,900 -1,740 Descending Chicago Center
04:41PM 40.8983 -89.7756 59° Northeast 378 435 19,400 -2,400 Descending Chicago Center
04:42PM 40.9500 -89.6614 59° Northeast 367 422 17,100 -2,160 Descending Chicago Center
04:43PM 41.0006 -89.5511 59° Northeast 363 418 15,000 -1,380 Descending Chicago Center
04:44PM 41.0517 -89.4367 59° Northeast 358 412 14,300 -840 Descending Chicago Center
04:45PM 41.1025 -89.3247 59° Northeast 360 414 13,300 -1,020 Descending Chicago Center
04:46PM 41.1508 -89.2161 59° Northeast 349 402 12,300 -1,080 Descending Chicago Center
04:48PM 41.2058 -89.0889 60° Northeast 337 388 11,100 -960 Descending Chicago Center
04:49PM 41.2508 -88.9878 59° Northeast 329 379 10,400 -840 Descending Chicago Center
04:50PM 41.3092 -88.9219 40° Northeast 286 329 9,400 -1,260 Descending Chicago Center
04:51PM 41.3669 -88.8581 40° Northeast 277 319 7,900 -1,260 Descending Chicago Center
04:52PM 41.3947 -88.7683 68° East 259 298 6,800 -960 Descending Chicago Center
04:53PM 41.4253 -88.6828 65° Northeast 257 296 6,000 -420 Descending Chicago Center
04:54PM 41.4589 -88.5783 67° East 256 295 6,000  Level Chicago Center
04:55PM 41.4844 -88.4906 69° East 255 293 6,000  Level Chicago Center
04:56PM 41.5100 -88.4033 69° East 254 292 6,000 -300 Level Chicago Center
04:57PM 41.5358 -88.3156 69° East 253 291 5,400 -780 Descending Chicago Center
04:58PM 41.5625 -88.2244 69° East 258 297 4,500 -720 Descending Chicago Center
04:59PM 41.5881 -88.1369 69° East 255 293 4,000 -240 Descending Chicago Center
05:00PM 41.6136 -88.0506 68° East 252 290 4,000  Level Chicago Center
05:01PM 41.6422 -87.9556 68° East 238 274 4,000 -300 Level Chicago Center
05:02PM 41.6717 -87.8967 56° Northeast 214 246 3,500 -720 Descending Chicago Center
05:03PM 41.7000 -87.8667 38° Northeast 172 198 2,800 -900 Descending Chicago TRACON
05:04PM 41.7333 -87.8167 48° Northeast 149 171 2,000 -780 Descending Chicago TRACON
05:05PM 41.7500 -87.8000 37° Northeast 121 139 1,400 -600 Descending Chicago TRACON